createdAt,value
2018-01-15T00:02:11.373Z,9.50
2018-01-15T00:04:44.821Z,10.50
2018-01-15T00:07:18.194Z,10.00
2018-01-15T00:09:51.555Z,8.60
2018-01-15T00:12:25.214Z,8.30
2018-01-15T00:14:57.729Z,8.30
2018-01-15T00:17:31.047Z,8.77
2018-01-15T00:20:03.981Z,10.23
2018-01-15T00:22:37.743Z,8.57
2018-01-15T00:25:11.162Z,7.53
2018-01-15T00:27:43.682Z,9.17
2018-01-15T00:30:16.586Z,8.00
2018-01-15T00:32:49.984Z,7.70
2018-01-15T00:35:23.459Z,7.10
2018-01-15T00:37:55.958Z,8.80
2018-01-15T00:40:29.374Z,7.93
2018-01-15T00:43:01.953Z,8.30
2018-01-15T00:45:34.733Z,7.70
2018-01-15T00:48:07.978Z,9.57
2018-01-15T00:50:40.630Z,7.87
2018-01-15T00:53:13.910Z,7.53
2018-01-15T00:55:47.564Z,8.70
2018-01-15T00:58:20.748Z,8.63
2018-01-15T01:00:54.084Z,8.10
2018-01-15T01:03:27.308Z,8.63
2018-01-15T01:06:00.632Z,7.90
2018-01-15T01:08:33.176Z,8.20
2018-01-15T01:11:05.551Z,9.00
2018-01-15T01:13:38.084Z,10.27
2018-01-15T01:16:11.462Z,8.70
2018-01-15T01:18:44.262Z,8.57
2018-01-15T01:21:17.560Z,8.10
2018-01-15T01:23:50.350Z,7.43
2018-01-15T01:26:23.850Z,8.67
2018-01-15T01:28:57.833Z,7.90
2018-01-15T01:31:30.565Z,10.40
2018-01-15T01:34:03.852Z,8.83
2018-01-15T01:36:37.251Z,8.53
2018-01-15T01:39:10.092Z,9.13
2018-01-15T01:41:42.672Z,7.90
2018-01-15T01:44:15.257Z,10.60
2018-01-15T01:46:47.742Z,9.07
2018-01-15T01:49:20.288Z,6.80
2018-01-15T01:51:54.365Z,7.80
2018-01-15T01:54:27.334Z,9.20
2018-01-15T01:57:00.665Z,8.97
2018-01-15T01:59:34.017Z,7.40
2018-01-15T02:02:06.557Z,9.50
2018-01-15T02:04:39.130Z,10.93
2018-01-15T02:07:11.788Z,8.40
2018-01-15T02:09:45.188Z,8.37
2018-01-15T02:12:17.837Z,9.23
2018-01-15T02:14:51.133Z,7.97
2018-01-15T02:17:23.629Z,9.20
2018-01-15T02:19:57.057Z,9.80
2018-01-15T02:22:29.565Z,10.40
2018-01-15T02:25:02.214Z,8.93
2018-01-15T02:27:35.542Z,9.00
2018-01-15T02:30:08.046Z,9.63
2018-01-15T02:32:40.937Z,8.77
2018-01-15T02:35:13.529Z,8.60
2018-01-15T02:37:47.810Z,8.50
2018-01-15T02:40:20.920Z,11.60
2018-01-15T02:42:53.387Z,9.87
2018-01-15T02:45:26.174Z,9.20
2018-01-15T02:47:59.778Z,13.33
2018-01-15T02:50:32.694Z,11.77
2018-01-15T02:53:05.312Z,11.67
2018-01-15T02:55:39.326Z,10.80
2018-01-15T02:58:12.838Z,11.10
2018-01-15T03:00:45.525Z,13.60
2018-01-15T03:03:17.975Z,15.00
2018-01-15T03:05:50.656Z,10.60
2018-01-15T03:08:23.371Z,12.10
2018-01-15T03:10:56.845Z,15.77
2018-01-15T03:13:29.607Z,13.83
2018-01-15T03:16:02.080Z,15.33
2018-01-15T03:18:34.627Z,13.23
2018-01-15T03:21:07.240Z,13.77
2018-01-15T03:23:40.523Z,11.47
2018-01-15T03:26:13.525Z,11.00
2018-01-15T03:28:46.162Z,11.17
2018-01-15T03:31:19.030Z,10.70
2018-01-15T03:33:51.654Z,14.67
2018-01-15T03:36:24.516Z,14.10
2018-01-15T03:38:57.131Z,12.20
2018-01-15T03:41:30.175Z,11.70
2018-01-15T03:44:02.903Z,11.27
2018-01-15T03:46:36.521Z,11.67
2018-01-15T03:49:09.410Z,10.80
2018-01-15T03:51:42.075Z,18.70
2018-01-15T03:54:14.687Z,13.87
2018-01-15T03:56:48.308Z,13.70
2018-01-15T03:59:21.179Z,12.27
2018-01-15T04:01:54.813Z,14.53
2018-01-15T04:04:27.538Z,10.27
2018-01-15T04:07:01.154Z,13.50
2018-01-15T04:09:34.513Z,11.50
2018-01-15T04:12:07.703Z,13.70
2018-01-15T04:14:40.341Z,13.87
2018-01-15T04:17:12.878Z,11.67
2018-01-15T04:19:45.437Z,13.30
2018-01-15T04:22:18.321Z,9.70
2018-01-15T04:24:52.422Z,12.20
2018-01-15T04:27:25.103Z,12.80
2018-01-15T04:29:59.242Z,14.80
2018-01-15T04:32:32.221Z,14.03
2018-01-15T04:35:04.806Z,18.10
2018-01-15T04:37:37.469Z,12.93
2018-01-15T04:40:10.214Z,13.93
2018-01-15T04:42:42.714Z,15.13
2018-01-15T04:45:16.018Z,14.70
2018-01-15T04:47:48.798Z,12.57
2018-01-15T04:50:21.598Z,15.60
2018-01-15T04:52:54.870Z,12.10
2018-01-15T04:55:27.861Z,13.67
2018-01-15T04:58:01.076Z,18.13
2018-01-15T05:00:34.876Z,14.57
2018-01-15T05:03:07.772Z,14.20
2018-01-15T05:05:40.430Z,16.90
2018-01-15T05:08:13.334Z,16.80
2018-01-15T05:10:46.123Z,18.30
2018-01-15T05:13:18.713Z,17.50
2018-01-15T05:15:51.274Z,17.30
2018-01-15T05:18:23.911Z,17.43
2018-01-15T05:20:57.316Z,18.13
2018-01-15T05:23:29.776Z,15.67
2018-01-15T05:26:02.318Z,14.57
2018-01-15T05:28:34.909Z,16.40
2018-01-15T05:31:08.400Z,14.50
2018-01-15T05:33:41.030Z,13.87
2018-01-15T05:36:13.904Z,15.40
2018-01-15T05:38:47.285Z,16.70
2018-01-15T05:41:19.965Z,16.80
2018-01-15T05:43:53.398Z,18.47
2018-01-15T05:46:26.779Z,19.50
2018-01-15T05:48:59.814Z,14.93
2018-01-15T05:51:33.363Z,17.77
2018-01-15T05:54:06.405Z,13.77
2018-01-15T05:56:39.828Z,18.00
2018-01-15T05:59:12.514Z,16.23
2018-01-15T06:01:45.241Z,14.13
2018-01-15T06:04:18.079Z,18.77
2018-01-15T06:06:50.614Z,18.43
2018-01-15T06:09:23.902Z,19.50
2018-01-15T06:11:56.717Z,16.00
2018-01-15T06:14:29.571Z,22.73
2018-01-15T06:17:02.129Z,19.37
2018-01-15T06:19:34.742Z,16.57
2018-01-15T06:22:07.378Z,19.47
2018-01-15T06:24:40.082Z,17.53
2018-01-15T06:27:12.608Z,17.13
2018-01-15T06:29:46.263Z,14.63
2018-01-15T06:32:19.044Z,15.03
2018-01-15T06:34:59.298Z,19.70
2018-01-15T06:37:32.324Z,20.30
2018-01-15T06:40:04.809Z,18.37
2018-01-15T06:42:37.477Z,17.53
2018-01-15T06:45:11.671Z,12.50
2018-01-15T06:47:44.640Z,19.33
2018-01-15T06:50:17.414Z,15.43
2018-01-15T06:52:50.797Z,15.33
2018-01-15T06:55:23.554Z,14.63
2018-01-15T06:57:56.012Z,17.23
2018-01-15T07:00:29.169Z,18.80
2018-01-15T07:03:01.853Z,18.43
2018-01-15T07:05:34.917Z,15.00
2018-01-15T07:08:07.527Z,15.03
2018-01-15T07:10:40.291Z,17.30
2018-01-15T07:13:12.971Z,16.50
2018-01-15T07:15:45.771Z,12.40
2018-01-15T07:18:18.754Z,11.50
2018-01-15T07:20:51.625Z,14.17
2018-01-15T07:23:25.575Z,12.43
2018-01-15T07:25:58.653Z,15.70
2018-01-15T07:28:31.176Z,15.40
2018-01-15T07:31:03.930Z,14.93
2018-01-15T07:33:36.711Z,15.63
2018-01-15T07:36:09.303Z,14.30
2018-01-15T07:38:42.586Z,13.90
2018-01-15T07:41:15.474Z,12.60
2018-01-15T07:43:48.986Z,15.30
2018-01-15T07:46:22.712Z,15.43
2018-01-15T07:48:56.175Z,12.90
2018-01-15T07:51:29.558Z,13.40
2018-01-15T07:54:03.100Z,14.80
2018-01-15T07:56:35.783Z,14.20
2018-01-15T07:59:08.337Z,14.40
2018-01-15T08:01:41.656Z,15.03
2018-01-15T08:04:15.029Z,16.77
2018-01-15T08:06:48.720Z,18.27
2018-01-15T08:09:21.397Z,17.97
2018-01-15T08:11:54.892Z,16.13
2018-01-15T08:14:27.643Z,13.27
2018-01-15T08:17:00.618Z,14.50
2018-01-15T08:19:33.214Z,11.70
2018-01-15T08:22:06.177Z,14.60
2018-01-15T08:24:38.833Z,15.67
2018-01-15T08:27:11.369Z,14.20
2018-01-15T08:29:44.193Z,17.07
2018-01-15T08:32:17.806Z,13.27
2018-01-15T08:34:50.743Z,17.90
2018-01-15T08:37:23.414Z,16.90
2018-01-15T08:39:56.282Z,17.30
2018-01-15T08:42:29.901Z,15.57
2018-01-15T08:45:02.823Z,16.10
2018-01-15T08:47:35.322Z,16.50
2018-01-15T08:50:07.885Z,11.70
2018-01-15T08:52:40.420Z,14.40
2018-01-15T08:55:13.085Z,15.63
2018-01-15T08:57:46.272Z,18.03
2018-01-15T09:00:19.214Z,18.30
2018-01-15T09:02:52.046Z,16.40
2018-01-15T09:05:25.318Z,18.23
2018-01-15T09:07:58.830Z,14.00
2018-01-15T09:10:31.752Z,16.43
2018-01-15T09:13:05.110Z,19.90
2018-01-15T09:15:38.442Z,16.97
2018-01-15T09:18:11.897Z,18.10
2018-01-15T09:20:44.573Z,17.90
2018-01-15T09:23:17.332Z,19.93
2018-01-15T09:25:49.998Z,18.10
2018-01-15T09:28:22.675Z,18.80
2018-01-15T09:30:55.421Z,16.33
2018-01-15T09:33:28.139Z,17.10
2018-01-15T09:36:01.546Z,18.13
2018-01-15T09:38:34.654Z,18.20
2018-01-15T09:41:07.197Z,17.27
2018-01-15T09:43:39.755Z,14.07
2018-01-15T09:46:13.276Z,16.87
2018-01-15T09:48:46.221Z,16.60
2018-01-15T09:51:18.968Z,17.50
2018-01-15T09:53:51.589Z,14.70
2018-01-15T09:56:25.182Z,14.57
2018-01-15T09:58:58.786Z,17.60
2018-01-15T10:01:31.796Z,16.60
2018-01-15T10:04:04.637Z,17.37
2018-01-15T10:06:37.954Z,16.90
2018-01-15T10:09:10.531Z,15.57
2018-01-15T10:11:43.190Z,17.43
2018-01-15T10:14:15.676Z,17.70
2018-01-15T10:16:48.878Z,16.97
2018-01-15T10:19:21.879Z,14.97
2018-01-15T10:21:54.313Z,11.70
2018-01-15T10:24:27.053Z,12.47
2018-01-15T10:27:00.269Z,16.00
2018-01-15T10:29:33.869Z,14.53
2018-01-15T10:32:06.960Z,15.27
2018-01-15T10:34:39.791Z,13.30
2018-01-15T10:37:12.389Z,15.20
2018-01-15T10:39:45.753Z,13.63
2018-01-15T10:42:19.537Z,12.40
2018-01-15T10:44:52.554Z,14.63
2018-01-15T10:47:26.013Z,12.80
2018-01-15T10:49:59.061Z,14.23
2018-01-15T10:52:31.790Z,13.80
2018-01-15T10:55:04.596Z,11.53
2018-01-15T10:57:37.466Z,10.40
2018-01-15T11:00:11.214Z,10.07
2018-01-15T11:02:45.381Z,13.77
2018-01-15T11:05:18.669Z,12.47
2018-01-15T11:07:51.370Z,10.63
2018-01-15T11:10:23.733Z,10.30
2018-01-15T11:12:57.064Z,11.17
2018-01-15T11:15:30.107Z,9.00
2018-01-15T11:18:03.290Z,10.20
2018-01-15T11:20:36.134Z,9.90
2018-01-15T11:23:08.741Z,10.00
2018-01-15T11:25:42.056Z,10.43
2018-01-15T11:28:14.890Z,8.83
2018-01-15T11:30:47.541Z,9.53
2018-01-15T11:33:20.799Z,10.10
2018-01-15T11:35:53.895Z,9.20
2018-01-15T11:38:27.532Z,8.23
2018-01-15T11:41:00.046Z,8.27
2018-01-15T11:43:32.520Z,9.13
2018-01-15T11:46:05.112Z,9.33
2018-01-15T11:48:38.606Z,7.73
2018-01-15T11:51:11.425Z,7.70
2018-01-15T11:53:44.134Z,5.90
2018-01-15T11:56:17.658Z,8.20
2018-01-15T11:58:51.386Z,8.00
2018-01-15T12:01:24.257Z,10.50
2018-01-15T12:03:56.959Z,10.83
2018-01-15T12:06:29.699Z,10.37
2018-01-15T12:09:02.491Z,11.77
2018-01-15T12:11:34.941Z,11.80
2018-01-15T12:14:07.588Z,10.77
2018-01-15T12:16:40.906Z,12.77
2018-01-15T12:19:13.905Z,7.60
2018-01-15T12:21:46.600Z,8.57
2018-01-15T12:24:19.141Z,10.47
2018-01-15T12:26:52.816Z,7.80
2018-01-15T12:29:25.885Z,8.83
2018-01-15T12:31:59.018Z,12.53
2018-01-15T12:34:32.337Z,10.50
2018-01-15T12:37:04.958Z,10.00
2018-01-15T12:39:37.970Z,10.70
2018-01-15T12:42:11.358Z,10.13
2018-01-15T12:44:44.299Z,11.70
2018-01-15T12:47:16.906Z,10.77
2018-01-15T12:49:49.673Z,9.37
2018-01-15T12:52:22.150Z,10.90
2018-01-15T12:54:54.736Z,9.90
2018-01-15T12:57:28.160Z,10.33
2018-01-15T13:00:01.015Z,10.00
2018-01-15T13:02:33.727Z,17.30
2018-01-15T13:05:06.928Z,11.50
2018-01-15T13:07:58.027Z,10.10
2018-01-15T13:10:30.530Z,9.80
2018-01-15T13:13:03.774Z,9.73
2018-01-15T13:15:36.584Z,9.63
2018-01-15T13:18:10.221Z,7.53
2018-01-15T13:20:42.622Z,9.47
2018-01-15T13:23:15.230Z,8.70
2018-01-15T13:25:48.419Z,7.17
2018-01-15T13:28:21.156Z,8.17
2018-01-15T13:30:53.575Z,6.10
2018-01-15T13:33:26.100Z,6.70
2018-01-15T13:35:59.394Z,8.70
2018-01-15T13:38:32.567Z,8.30
2018-01-15T13:41:06.516Z,7.83
2018-01-15T13:43:39.795Z,5.93
2018-01-15T13:46:12.278Z,7.20
2018-01-15T13:48:45.448Z,7.27
2018-01-15T13:51:19.586Z,6.10
2018-01-15T13:53:52.329Z,6.50
2018-01-15T13:56:24.862Z,6.67
2018-01-15T13:58:57.305Z,7.57
2018-01-15T14:01:29.870Z,7.40
2018-01-15T14:04:03.208Z,6.97
2018-01-15T14:06:36.785Z,6.70
2018-01-15T14:09:09.633Z,5.73
2018-01-15T14:11:42.110Z,6.50
2018-01-15T14:14:14.704Z,7.00
2018-01-15T14:16:47.471Z,6.00
2018-01-15T14:19:20.077Z,10.70
2018-01-15T14:21:52.604Z,10.37
2018-01-15T14:24:25.105Z,7.97
2018-01-15T14:26:57.921Z,8.53
2018-01-15T14:29:30.566Z,10.83
2018-01-15T14:32:03.181Z,10.10
2018-01-15T14:34:36.614Z,9.73
2018-01-15T14:37:09.457Z,9.90
2018-01-15T14:39:42.144Z,8.80
2018-01-15T14:42:14.825Z,10.80
2018-01-15T14:44:47.305Z,8.30
2018-01-15T14:47:20.647Z,7.60
2018-01-15T14:49:53.432Z,7.53
2018-01-15T14:52:26.630Z,7.50
2018-01-15T14:54:59.598Z,8.80
2018-01-15T14:57:32.653Z,8.00
2018-01-15T15:00:05.403Z,8.43
2018-01-15T15:02:38.577Z,7.43
2018-01-15T15:05:12.059Z,6.67
2018-01-15T15:07:45.433Z,7.83
2018-01-15T15:10:18.766Z,8.27
2018-01-15T15:12:51.364Z,7.73
2018-01-15T15:15:23.910Z,10.60
2018-01-15T15:17:57.200Z,8.30
2018-01-15T15:20:30.138Z,8.40
2018-01-15T15:23:03.397Z,9.70
2018-01-15T15:25:36.126Z,8.77
2018-01-15T15:28:08.704Z,8.30
2018-01-15T15:30:41.095Z,7.73
2018-01-15T15:33:13.747Z,15.63
2018-01-15T15:35:47.073Z,8.93
2018-01-15T15:38:20.326Z,7.40
2018-01-15T15:40:53.042Z,6.70
2018-01-15T15:43:25.552Z,7.73
2018-01-15T15:45:58.039Z,7.43
2018-01-15T15:48:31.394Z,7.07
2018-01-15T15:51:04.929Z,6.60
2018-01-15T15:53:37.818Z,8.07
2018-01-15T15:56:11.202Z,5.40
2018-01-15T15:58:43.976Z,5.80
2018-01-15T16:01:16.570Z,4.93
2018-01-15T16:03:49.655Z,5.60
2018-01-15T16:06:22.458Z,6.83
2018-01-15T16:08:55.833Z,7.37
2018-01-15T16:11:29.513Z,8.17
2018-01-15T16:14:02.825Z,5.40
2018-01-15T16:16:36.081Z,5.90
2018-01-15T16:19:08.968Z,7.37
2018-01-15T16:21:41.561Z,7.67
2018-01-15T16:24:15.755Z,7.70
2018-01-15T16:26:49.281Z,6.30
2018-01-15T16:29:22.530Z,8.53
2018-01-15T16:31:55.340Z,7.00
2018-01-15T16:34:27.844Z,5.60
2018-01-15T16:37:00.273Z,8.27
2018-01-15T16:39:33.571Z,5.50
2018-01-15T16:42:06.954Z,8.03
2018-01-15T16:44:40.332Z,6.87
2018-01-15T16:47:13.014Z,8.97
2018-01-15T16:49:45.646Z,7.70
2018-01-15T16:52:19.019Z,11.70
2018-01-15T16:54:51.659Z,11.80
2018-01-15T16:57:24.135Z,9.30
2018-01-15T16:59:57.666Z,8.80
2018-01-15T17:02:30.506Z,7.93
2018-01-15T17:05:03.866Z,5.70
2018-01-15T17:07:36.409Z,6.27
2018-01-15T17:10:09.064Z,7.43
2018-01-15T17:12:42.541Z,8.63
2018-01-15T17:15:15.545Z,8.00
2018-01-15T17:17:49.545Z,6.87
2018-01-15T17:20:22.422Z,8.13
2018-01-15T17:22:55.690Z,8.50
2018-01-15T17:25:28.347Z,13.53
2018-01-15T17:28:01.160Z,14.20
2018-01-15T17:30:33.570Z,11.50
2018-01-15T17:33:06.115Z,11.43
2018-01-15T17:35:38.657Z,9.23
2018-01-15T17:38:11.365Z,8.63
2018-01-15T17:40:44.628Z,11.23
2018-01-15T17:43:17.545Z,11.10
2018-01-15T17:45:50.080Z,10.97
2018-01-15T17:48:22.710Z,10.93
2018-01-15T17:50:55.256Z,12.57
2018-01-15T17:53:29.394Z,11.40
2018-01-15T17:56:02.881Z,7.70
2018-01-15T17:58:35.738Z,7.50
2018-01-15T18:01:08.326Z,9.77
2018-01-15T18:03:41.006Z,8.73
2018-01-15T18:06:14.515Z,8.20
2018-01-15T18:08:47.083Z,9.30
2018-01-15T18:11:20.361Z,10.00
2018-01-15T18:13:53.122Z,6.80
2018-01-15T18:16:25.736Z,9.07
2018-01-15T18:18:58.902Z,11.67
2018-01-15T18:21:32.237Z,10.20
2018-01-15T18:24:05.215Z,8.90
2018-01-15T18:26:37.850Z,12.30
2018-01-15T18:29:10.497Z,10.30
2018-01-15T18:31:43.191Z,9.43
2018-01-15T18:34:16.494Z,11.87
2018-01-15T18:36:49.149Z,10.03
2018-01-15T18:39:21.613Z,9.20
2018-01-15T18:41:54.321Z,14.13
2018-01-15T18:44:27.684Z,11.43
2018-01-15T18:47:00.607Z,10.93
2018-01-15T18:49:33.274Z,9.10
2018-01-15T18:52:05.916Z,7.70
2018-01-15T18:54:38.519Z,7.53
2018-01-15T18:57:11.931Z,9.83
2018-01-15T18:59:45.053Z,7.27
2018-01-15T19:02:18.454Z,9.57
2018-01-15T19:04:52.658Z,10.50
2018-01-15T19:07:25.831Z,11.70
2018-01-15T19:09:59.856Z,12.30
2018-01-15T19:12:33.360Z,9.40
2018-01-15T19:15:05.839Z,8.97
2018-01-15T19:17:38.521Z,8.03
2018-01-15T19:20:12.034Z,9.30
2018-01-15T19:22:45.496Z,9.60
2018-01-15T19:25:18.115Z,8.07
2018-01-15T19:27:50.674Z,8.30
2018-01-15T19:30:24.102Z,5.93
2018-01-15T19:32:57.328Z,6.30
2018-01-15T19:35:33.664Z,5.60
2018-01-15T19:38:07.372Z,6.73
2018-01-15T19:40:40.698Z,7.93
2018-01-15T19:43:20.789Z,6.27
2018-01-15T19:46:00.941Z,7.23
2018-01-15T19:48:39.993Z,7.63
2018-01-15T19:51:18.951Z,7.93
2018-01-15T19:53:58.481Z,7.00
2018-01-15T19:56:37.406Z,5.43
2018-01-15T19:59:17.743Z,5.30
2018-01-15T20:01:56.722Z,5.40
2018-01-15T20:04:36.278Z,7.60
2018-01-15T20:07:15.728Z,6.00
2018-01-15T20:09:55.046Z,6.90
2018-01-15T20:12:27.758Z,6.40
2018-01-15T20:15:01.798Z,5.13
2018-01-15T20:17:35.624Z,5.87
2018-01-15T20:20:10.118Z,6.50
2018-01-15T20:22:43.196Z,7.17
2018-01-15T20:25:16.547Z,6.30
2018-01-15T20:27:51.306Z,5.90
2018-01-15T20:30:24.638Z,5.97
2018-01-15T20:32:57.361Z,6.00
2018-01-15T20:35:30.773Z,6.03
2018-01-15T20:38:04.352Z,4.60
2018-01-15T20:40:37.916Z,4.90
2018-01-15T20:43:12.738Z,6.67
2018-01-15T20:45:47.972Z,4.90
2018-01-15T20:48:21.898Z,5.33
2018-01-15T20:50:56.174Z,6.97
2018-01-15T20:53:29.159Z,6.20
2018-01-15T20:56:02.737Z,5.70
2018-01-15T20:58:35.948Z,5.77
2018-01-15T21:01:09.009Z,6.80
2018-01-15T21:03:43.920Z,5.57
2018-01-15T21:06:16.791Z,7.27
2018-01-15T21:08:49.953Z,6.00
2018-01-15T21:11:23.315Z,6.13
2018-01-15T21:13:58.288Z,6.00
2018-01-15T21:16:31.153Z,6.17
2018-01-15T21:19:03.873Z,5.70
2018-01-15T21:21:37.445Z,8.13
2018-01-15T21:24:10.971Z,6.20
2018-01-15T21:26:44.261Z,5.27
2018-01-15T21:29:17.157Z,4.43
2018-01-15T21:31:49.689Z,6.43
2018-01-15T21:34:23.112Z,6.50
2018-01-15T21:36:55.737Z,6.07
2018-01-15T21:39:28.337Z,7.87
2018-01-15T21:42:00.904Z,5.87
2018-01-15T21:44:33.566Z,5.20
2018-01-15T21:47:07.711Z,5.43
2018-01-15T21:49:40.469Z,6.20
2018-01-15T21:52:14.050Z,6.47
2018-01-15T21:54:47.016Z,7.20
2018-01-15T21:57:20.398Z,6.07
2018-01-15T21:59:53.234Z,5.53
2018-01-15T22:02:26.749Z,5.80
2018-01-15T22:05:00.864Z,4.70
2018-01-15T22:07:34.312Z,8.37
2018-01-15T22:10:07.010Z,5.27
2018-01-15T22:12:39.502Z,4.80
2018-01-15T22:15:12.891Z,5.47
2018-01-15T22:17:46.304Z,4.30
2018-01-15T22:20:19.102Z,6.80
2018-01-15T22:22:51.755Z,5.83
2018-01-15T22:25:24.377Z,5.73
2018-01-15T22:27:57.762Z,5.30
2018-01-15T22:30:30.596Z,5.70
2018-01-15T22:33:03.030Z,4.93
2018-01-15T22:35:35.662Z,5.40
2018-01-15T22:38:08.170Z,4.67
2018-01-15T22:40:41.481Z,4.17
2018-01-15T22:43:14.222Z,3.63
2018-01-15T22:45:47.513Z,3.80
2018-01-15T22:48:20.879Z,4.43
2018-01-15T22:50:54.250Z,3.83
2018-01-15T22:53:26.853Z,3.20
2018-01-15T22:55:59.571Z,4.87
2018-01-15T22:58:32.180Z,3.53
2018-01-15T23:01:04.892Z,3.00
2018-01-15T23:03:37.503Z,3.70
2018-01-15T23:06:10.159Z,2.70
2018-01-15T23:08:42.929Z,2.57
2018-01-15T23:11:15.501Z,3.00
2018-01-15T23:13:48.197Z,2.27
2018-01-15T23:16:21.484Z,2.40
2018-01-15T23:18:54.294Z,1.93
2018-01-15T23:21:27.012Z,2.13
2018-01-15T23:23:59.687Z,1.77
2018-01-15T23:26:32.374Z,1.80
2018-01-15T23:29:05.693Z,1.70
2018-01-15T23:31:38.772Z,1.63
2018-01-15T23:34:11.220Z,1.70
2018-01-15T23:36:44.053Z,0.90
2018-01-15T23:39:16.811Z,1.40
2018-01-15T23:41:50.965Z,1.57
2018-01-15T23:44:23.774Z,1.00
2018-01-15T23:46:56.321Z,1.10
2018-01-15T23:49:28.937Z,1.50
2018-01-15T23:54:42.823Z,1.30
2018-01-15T23:57:15.704Z,1.73
2018-01-15T23:59:49.099Z,2.10
